Time;durP1;ratioP1;P1;durP2;ratioP2;P2;SDS_P1;SDS_P2;PMS_P1;PMS_P2;Temp;Humidity;BMP_temperature;BMP_pressure;BME280_temperature;BME280_humidity;BME280_pressure;Samples;Min_cycle;Max_cycle;Signal;HPM_P1;HPM_P2
2022/10/27 00:00:55;;;;;;;29.50;14.80;;;;;;;7.52;89.77;101070.87;51771;1310;1016248;-80
2022/10/27 00:03:38;;;;;;;30.30;14.80;;;;;;;7.56;89.79;101076.09;51794;1292;1016252;-80
2022/10/27 00:06:10;;;;;;;30.80;13.80;;;;;;;7.58;89.90;101074.05;51448;1310;1015888;-79
2022/10/27 00:08:44;;;;;;;32.20;14.50;;;;;;;7.60;90.03;101077.09;51488;1310;1016023;-78
2022/10/27 00:11:18;;;;;;;32.30;16.30;;;;;;;7.64;90.11;101081.75;51581;1310;1016151;-78
2022/10/27 00:13:50;;;;;;;34.40;15.20;;;;;;;7.67;90.06;101080.80;51691;1308;1018674;-78
2022/10/27 00:16:21;;;;;;;31.80;15.90;;;;;;;7.68;90.26;101084.34;51511;1310;1016524;-79
2022/10/27 00:18:52;;;;;;;31.70;16.90;;;;;;;7.69;90.15;101085.65;51611;1294;1016057;-79
2022/10/27 00:21:23;;;;;;;29.40;15.10;;;;;;;7.72;90.31;101083.80;51688;1309;1016423;-79
2022/10/27 00:23:55;;;;;;;29.60;14.60;;;;;;;7.74;90.54;101085.27;51772;1310;1015988;-79
2022/10/27 00:26:27;;;;;;;31.60;15.20;;;;;;;7.75;90.42;101084.39;51728;1310;1016024;-79
2022/10/27 00:28:58;;;;;;;33.50;15.40;;;;;;;7.76;90.56;101082.21;51783;1309;1018858;-80
2022/10/27 00:31:29;;;;;;;32.10;15.10;;;;;;;7.76;90.62;101082.98;51652;1299;1016253;-79
2022/10/27 00:34:02;;;;;;;34.30;16.20;;;;;;;7.77;90.74;101082.98;51705;1280;1016182;-79
2022/10/27 00:36:34;;;;;;;37.10;17.30;;;;;;;7.78;90.83;101084.23;51760;1309;1015763;-80
2022/10/27 00:39:06;;;;;;;39.10;17.40;;;;;;;7.79;90.89;101086.98;51635;1310;1016479;-79
2022/10/27 00:41:38;;;;;;;32.20;15.10;;;;;;;7.80;90.92;101092.90;51624;1310;1015925;-79
2022/10/27 00:44:35;;;;;;;33.90;15.60;;;;;;;7.81;90.98;101082.46;51715;1310;1015935;-80
2022/10/27 00:47:11;;;;;;;36.50;15.10;;;;;;;7.83;91.31;101082.08;51731;1304;1016486;-79
2022/10/27 00:49:47;;;;;;;31.90;16.20;;;;;;;7.84;91.34;101087.13;51866;1294;1016172;-79
2022/10/27 00:52:24;;;;;;;34.30;17.00;;;;;;;7.86;91.27;101091.54;51679;1302;1015681;-79
2022/10/27 00:55:00;;;;;;;36.00;16.00;;;;;;;7.87;91.47;101096.96;51732;1310;1015913;-79
2022/10/27 00:57:34;;;;;;;34.20;16.90;;;;;;;7.90;91.43;101097.60;51970;1310;1016487;-79
2022/10/27 01:00:08;;;;;;;36.10;17.00;;;;;;;7.91;91.54;101097.10;51834;1279;1015671;-79
2022/10/27 01:02:40;;;;;;;33.50;16.20;;;;;;;7.92;91.31;101098.69;51865;1301;1016764;-80
2022/10/27 01:05:17;;;;;;;31.40;15.50;;;;;;;7.91;91.34;101101.14;52028;1310;1015848;-80
2022/10/27 01:07:49;;;;;;;38.00;16.40;;;;;;;7.90;91.27;101103.63;51863;1309;1016197;-79
2022/10/27 01:10:21;;;;;;;32.30;15.90;;;;;;;7.89;91.22;101101.05;51936;1304;1016148;-80
2022/10/27 01:12:53;;;;;;;32.60;15.50;;;;;;;7.88;91.15;101104.17;51764;1310;1018057;-79
2022/10/27 01:15:34;;;;;;;34.60;16.00;;;;;;;7.86;91.10;101104.79;51880;1310;1016237;-80
2022/10/27 01:18:16;;;;;;;28.70;14.80;;;;;;;7.84;90.85;101104.45;51856;1310;1016450;-79
2022/10/27 01:21:28;;;;;;;29.70;15.40;;;;;;;7.81;90.94;101104.23;51772;1309;1015410;-80
2022/10/27 01:24:30;;;;;;;33.80;15.10;;;;;;;7.76;90.84;101104.92;51350;1317;1017953;-79
2022/10/27 01:27:06;;;;;;;33.10;15.90;;;;;;;7.71;90.78;101106.78;51648;1297;1015882;-79
2022/10/27 01:30:08;;;;;;;34.20;15.40;;;;;;;7.68;90.73;101107.43;51354;1316;1017524;-80
2022/10/27 01:32:50;;;;;;;35.50;15.70;;;;;;;7.65;90.56;101109.83;51100;1323;1015753;-79
2022/10/27 01:35:28;;;;;;;33.20;15.00;;;;;;;7.62;90.59;101112.04;51192;1323;1016411;-79
2022/10/27 01:38:09;;;;;;;30.10;15.10;;;;;;;7.60;90.41;101113.38;51339;1323;1018352;-79
2022/10/27 01:40:44;;;;;;;38.10;15.80;;;;;;;7.56;90.38;101118.50;51244;1323;1017078;-80
2022/10/27 01:43:20;;;;;;;31.10;14.20;;;;;;;7.52;90.23;101114.80;51393;1323;1016390;-79
2022/10/27 01:45:52;;;;;;;36.20;14.70;;;;;;;7.48;90.39;101118.45;51340;1323;1016019;-80
2022/10/27 01:48:25;;;;;;;33.40;15.50;;;;;;;7.47;90.45;101117.39;51094;1323;1016449;-79
2022/10/27 01:50:56;;;;;;;31.90;15.30;;;;;;;7.47;90.43;101121.98;51192;1323;1015678;-80
2022/10/27 01:53:28;;;;;;;32.10;15.10;;;;;;;7.43;90.46;101120.34;51095;1320;1019439;-80
2022/10/27 01:56:14;;;;;;;34.80;14.80;;;;;;;7.41;90.29;101118.83;51078;1323;1019031;-79
2022/10/27 01:59:03;;;;;;;31.30;14.40;;;;;;;7.38;90.11;101126.98;51126;1323;1016114;-79
2022/10/27 02:01:56;;;;;;;27.70;13.00;;;;;;;7.33;90.18;101124.00;51451;1315;1016472;-79
2022/10/27 02:04:35;;;;;;;29.80;14.90;;;;;;;7.30;90.12;101128.05;51601;1299;1016366;-79
2022/10/27 02:07:17;;;;;;;30.40;15.00;;;;;;;7.25;90.09;101126.03;51654;1303;1015694;-79
2022/10/27 02:09:55;;;;;;;30.00;13.90;;;;;;;7.20;90.08;101128.77;51708;1308;1016617;-77
2022/10/27 02:12:30;;;;;;;31.50;14.10;;;;;;;7.17;90.11;101129.55;51559;1287;1016050;-79
2022/10/27 02:15:05;;;;;;;32.20;14.40;;;;;;;7.16;90.23;101130.63;51552;1310;1019876;-79
2022/10/27 02:17:40;;;;;;;33.20;14.60;;;;;;;7.14;89.99;101131.30;51582;1310;1018119;-78
2022/10/27 02:20:18;;;;;;;29.20;14.30;;;;;;;7.11;90.24;101129.14;51564;1310;1016527;-79
2022/10/27 02:22:51;;;;;;;30.80;14.70;;;;;;;7.09;90.09;101131.67;51895;1309;1016573;-79
2022/10/27 02:25:28;;;;;;;33.70;15.20;;;;;;;7.08;90.18;101131.52;51695;1310;1016194;-79
2022/10/27 02:28:03;;;;;;;33.00;15.40;;;;;;;7.06;90.06;101134.43;51609;1310;1016526;-79
2022/10/27 02:30:37;;;;;;;31.70;14.10;;;;;;;7.05;89.92;101137.23;51601;1310;1016691;-79
2022/10/27 02:33:10;;;;;;;36.20;16.40;;;;;;;7.03;89.98;101134.58;51628;1302;1015749;-79
2022/10/27 02:35:42;;;;;;;31.30;14.70;;;;;;;7.00;90.06;101141.55;51785;1309;1016037;-79
2022/10/27 02:38:14;;;;;;;33.50;13.90;;;;;;;6.98;90.19;101149.38;51740;1310;1015877;-79
2022/10/27 02:40:45;;;;;;;31.50;14.10;;;;;;;6.95;89.87;101148.17;51639;1310;1016461;-79
2022/10/27 02:43:16;;;;;;;28.40;13.10;;;;;;;6.93;90.11;101147.53;51685;1307;1016027;-79
2022/10/27 02:45:48;;;;;;;35.20;13.50;;;;;;;6.89;90.10;101146.81;51611;1310;1018648;-79
2022/10/27 02:48:19;;;;;;;29.00;13.30;;;;;;;6.86;90.03;101146.16;51601;1296;1016117;-79
2022/10/27 02:50:51;;;;;;;35.70;14.20;;;;;;;6.85;90.05;101144.21;51626;1311;1016430;-79
2022/10/27 02:53:22;;;;;;;29.40;12.80;;;;;;;6.85;89.98;101145.87;51823;1310;1015704;-79
2022/10/27 02:55:54;;;;;;;33.10;14.50;;;;;;;6.85;89.91;101147.00;51740;1303;1018142;-79
2022/10/27 02:58:25;;;;;;;30.70;13.60;;;;;;;6.83;90.10;101148.63;52045;1309;1015352;-79
2022/10/27 03:00:57;;;;;;;29.90;13.10;;;;;;;6.81;90.03;101149.45;51855;1309;1016189;-79
2022/10/27 03:03:28;;;;;;;33.50;13.70;;;;;;;6.79;89.87;101148.15;52036;1310;1017547;-79
2022/10/27 03:05:59;;;;;;;28.70;14.10;;;;;;;6.77;89.95;101151.55;51754;1294;1016436;-79
2022/10/27 03:08:30;;;;;;;31.30;14.30;;;;;;;6.74;89.97;101151.23;51827;1310;1018451;-80
2022/10/27 03:11:01;;;;;;;31.80;13.40;;;;;;;6.73;89.96;101155.42;51723;1294;1017204;-79
2022/10/27 03:13:32;;;;;;;31.30;14.20;;;;;;;6.73;90.03;101155.13;51817;1310;1016692;-79
2022/10/27 03:16:04;;;;;;;28.40;12.30;;;;;;;6.70;90.05;101156.70;51798;1310;1015831;-79
2022/10/27 03:18:35;;;;;;;35.10;13.50;;;;;;;6.69;90.19;101160.67;51770;1310;1017385;-79
2022/10/27 03:21:07;;;;;;;27.80;11.00;;;;;;;6.68;90.12;101164.98;51825;1310;1016214;-79
2022/10/27 03:23:38;;;;;;;30.10;11.40;;;;;;;6.68;90.14;101161.50;51560;1310;1016491;-79
2022/10/27 03:26:10;;;;;;;31.20;12.40;;;;;;;6.66;90.19;101163.67;51621;1307;1016466;-79
2022/10/27 03:28:41;;;;;;;28.80;11.60;;;;;;;6.65;90.18;101165.05;51600;1309;1015959;-79
2022/10/27 03:31:12;;;;;;;26.50;11.60;;;;;;;6.63;90.27;101165.41;51548;1309;1015754;-79
2022/10/27 03:33:44;;;;;;;22.90;9.80;;;;;;;6.63;90.35;101168.12;51671;1309;1015968;-79
2022/10/27 03:36:16;;;;;;;26.20;11.10;;;;;;;6.59;90.25;101172.23;51678;1293;1018155;-78
2022/10/27 03:38:47;;;;;;;23.10;9.60;;;;;;;6.57;90.31;101171.58;51583;1286;1016621;-79
2022/10/27 03:41:19;;;;;;;26.10;10.00;;;;;;;6.55;90.24;101172.89;51625;1303;1017042;-79
2022/10/27 03:43:50;;;;;;;27.70;10.80;;;;;;;6.52;90.16;101174.30;51749;1309;1016149;-79
2022/10/27 03:46:21;;;;;;;25.00;9.60;;;;;;;6.50;90.28;101177.58;51713;1302;1016074;-79
2022/10/27 03:48:53;;;;;;;25.90;11.00;;;;;;;6.48;90.15;101177.95;51677;1310;1018164;-79
2022/10/27 03:51:24;;;;;;;28.30;10.70;;;;;;;6.46;90.09;101180.59;51737;1309;1016623;-78
2022/10/27 03:53:56;;;;;;;23.60;10.10;;;;;;;6.44;90.08;101180.79;51693;1309;1015778;-78
2022/10/27 03:56:28;;;;;;;27.30;10.70;;;;;;;6.43;90.16;101182.81;51651;1310;1015853;-78
2022/10/27 03:58:59;;;;;;;24.60;8.90;;;;;;;6.41;90.15;101184.98;51664;1309;1016009;-79
2022/10/27 04:01:33;;;;;;;26.90;11.40;;;;;;;6.39;90.15;101192.88;51722;1310;1016229;-79
2022/10/27 04:04:04;;;;;;;33.00;10.30;;;;;;;6.39;90.22;101192.80;51728;1287;1016830;-79
2022/10/27 04:06:36;;;;;;;35.00;10.50;;;;;;;6.36;90.27;101195.45;51619;1310;1016005;-79
2022/10/27 04:09:08;;;;;;;29.60;11.10;;;;;;;6.35;90.16;101194.55;51623;1303;1016464;-78
2022/10/27 04:11:39;;;;;;;26.30;11.30;;;;;;;6.34;90.39;101193.84;51649;1310;1016049;-78
2022/10/27 04:14:10;;;;;;;24.10;10.80;;;;;;;6.34;90.27;101191.56;51721;1310;1016128;-79
2022/10/27 04:16:41;;;;;;;22.50;10.10;;;;;;;6.31;90.36;101189.85;51605;1309;1016363;-78
2022/10/27 04:19:13;;;;;;;30.40;11.90;;;;;;;6.30;90.41;101192.98;51726;1303;1016261;-78
2022/10/27 04:21:45;;;;;;;21.80;10.20;;;;;;;6.28;90.31;101196.34;51735;1310;1015474;-78
2022/10/27 04:24:16;;;;;;;24.60;10.30;;;;;;;6.26;90.34;101194.02;51800;1280;1016415;-78
2022/10/27 04:26:47;;;;;;;24.80;10.10;;;;;;;6.25;90.36;101193.80;51613;1308;1016960;-78
2022/10/27 04:29:19;;;;;;;27.40;10.90;;;;;;;6.25;90.56;101193.55;51725;1287;1016475;-79
2022/10/27 04:31:50;;;;;;;23.90;10.20;;;;;;;6.25;90.39;101191.09;51652;1288;1015842;-79
2022/10/27 04:34:22;;;;;;;26.10;11.00;;;;;;;6.25;90.52;101192.59;51784;1286;1016465;-80
2022/10/27 04:36:54;;;;;;;23.10;10.70;;;;;;;6.23;90.51;101193.35;51963;1294;1016055;-80
2022/10/27 04:39:26;;;;;;;25.50;11.20;;;;;;;6.22;90.44;101194.41;51800;1303;1016504;-80
2022/10/27 04:41:58;;;;;;;24.60;11.00;;;;;;;6.21;90.38;101195.85;51923;1310;1017710;-80
2022/10/27 04:44:29;;;;;;;25.20;11.20;;;;;;;6.21;90.51;101194.90;51891;1306;1015733;-80
2022/10/27 04:47:01;;;;;;;25.20;10.30;;;;;;;6.20;90.33;101195.87;51903;1304;1016183;-80
2022/10/27 04:49:32;;;;;;;32.20;12.20;;;;;;;6.19;90.41;101197.47;51746;1310;1016137;-81
2022/10/27 04:52:05;;;;;;;30.60;12.70;;;;;;;6.17;90.29;101200.84;51999;1310;1016363;-80
2022/10/27 04:54:36;;;;;;;32.00;13.80;;;;;;;6.16;90.20;101206.96;51819;1310;1016326;-80
2022/10/27 04:57:07;;;;;;;26.30;11.70;;;;;;;6.16;90.41;101208.25;51744;1286;1016419;-80
2022/10/27 04:59:38;;;;;;;30.30;12.10;;;;;;;6.15;90.41;101208.09;51864;1310;1016215;-80
2022/10/27 05:02:10;;;;;;;32.40;12.10;;;;;;;6.14;90.38;101206.36;51748;1287;1016441;-81
2022/10/27 05:04:42;;;;;;;33.10;12.90;;;;;;;6.14;90.41;101207.57;51807;1303;1016526;-81
2022/10/27 05:07:13;;;;;;;31.20;11.00;;;;;;;6.14;90.50;101214.14;51816;1293;1016065;-80
2022/10/27 05:09:44;;;;;;;28.70;12.10;;;;;;;6.12;90.41;101215.74;51953;1310;1016019;-80
2022/10/27 05:12:15;;;;;;;28.90;11.50;;;;;;;6.11;90.46;101217.98;51728;1303;1016317;-79
2022/10/27 05:14:47;;;;;;;25.50;11.50;;;;;;;6.09;90.53;101216.13;51891;1310;1015754;-80
2022/10/27 05:17:19;;;;;;;27.70;11.00;;;;;;;6.08;90.40;101223.84;51988;1308;1018579;-80
2022/10/27 05:19:50;;;;;;;25.60;10.80;;;;;;;6.06;90.43;101227.20;52004;1294;1016362;-80
2022/10/27 05:22:21;;;;;;;31.70;13.30;;;;;;;6.06;90.50;101229.81;51704;1309;1016203;-81
2022/10/27 05:24:53;;;;;;;28.30;13.20;;;;;;;6.05;90.47;101229.03;51943;1310;1018592;-82
2022/10/27 05:27:24;;;;;;;26.00;12.90;;;;;;;6.05;90.52;101233.48;51729;1310;1016039;-80
2022/10/27 05:29:55;;;;;;;28.90;14.40;;;;;;;6.03;90.51;101242.05;51778;1310;1016022;-80
2022/10/27 05:32:27;;;;;;;29.80;13.20;;;;;;;6.02;90.59;101243.42;51744;1310;1016168;-81
2022/10/27 05:34:58;;;;;;;25.50;9.60;;;;;;;6.03;90.57;101244.12;51795;1309;1016216;-81
2022/10/27 05:37:30;;;;;;;23.80;9.80;;;;;;;6.02;90.63;101251.42;51752;1309;1015725;-81
2022/10/27 05:40:01;;;;;;;27.10;10.20;;;;;;;6.01;90.76;101260.48;51935;1309;1016181;-80
2022/10/27 05:42:33;;;;;;;24.40;9.30;;;;;;;6.00;90.76;101263.11;51648;1310;1015617;-80
2022/10/27 05:45:04;;;;;;;24.40;8.40;;;;;;;5.99;90.93;101262.89;51751;1309;1016211;-81
2022/10/27 05:47:35;;;;;;;22.90;9.30;;;;;;;5.98;90.85;101266.23;51785;1311;1017237;-81
2022/10/27 05:50:08;;;;;;;22.60;9.20;;;;;;;5.98;90.83;101262.51;51761;1304;1016216;-81
2022/10/27 05:52:40;;;;;;;23.90;7.90;;;;;;;5.99;90.89;101265.41;51879;1310;1016033;-80
2022/10/27 05:55:12;;;;;;;21.00;7.70;;;;;;;5.99;90.98;101268.17;51756;1310;1016314;-81
2022/10/27 05:57:52;;;;;;;18.70;6.60;;;;;;;6.00;91.10;101269.43;51886;1310;1018364;-80
2022/10/27 06:00:24;;;;;;;18.20;7.70;;;;;;;6.01;91.31;101271.31;51724;1310;1018370;-81
2022/10/27 06:02:58;;;;;;;23.70;7.50;;;;;;;6.03;91.27;101267.56;51848;1310;1016062;-80
2022/10/27 06:05:31;;;;;;;26.20;8.00;;;;;;;6.05;91.38;101268.69;51909;1309;1015867;-80
2022/10/27 06:08:03;;;;;;;19.70;7.20;;;;;;;6.08;91.47;101273.58;51970;1310;1015460;-80
2022/10/27 06:10:35;;;;;;;26.20;9.00;;;;;;;6.10;91.54;101283.45;51973;1310;1016413;-80
2022/10/27 06:13:10;;;;;;;21.00;8.30;;;;;;;6.12;91.70;101287.91;52073;1310;1016313;-80
2022/10/27 06:15:42;;;;;;;20.70;9.30;;;;;;;6.14;91.78;101291.36;51723;1310;1016475;-80
2022/10/27 06:18:13;;;;;;;29.70;12.20;;;;;;;6.16;91.99;101293.46;51842;1309;1018878;-81
2022/10/27 06:20:45;;;;;;;30.70;11.80;;;;;;;6.17;91.98;101292.33;51792;1310;1016153;-80
2022/10/27 06:23:16;;;;;;;28.50;10.40;;;;;;;6.18;92.10;101298.17;51758;1310;1016059;-80
2022/10/27 06:25:47;;;;;;;30.30;11.00;;;;;;;6.21;92.18;101300.66;51894;1311;1015886;-80
2022/10/27 06:28:21;;;;;;;23.60;9.80;;;;;;;6.23;92.17;101303.63;51927;1310;1015847;-81
2022/10/27 06:30:52;;;;;;;25.80;9.50;;;;;;;6.26;92.32;101307.63;51847;1310;1016162;-81
2022/10/27 06:33:25;;;;;;;23.20;9.20;;;;;;;6.27;92.49;101307.98;51676;1309;1015864;-80
2022/10/27 06:35:57;;;;;;;20.90;8.30;;;;;;;6.31;92.30;101305.48;51818;1302;1016087;-80
2022/10/27 06:38:28;;;;;;;26.90;9.90;;;;;;;6.32;92.47;101305.37;51851;1303;1016205;-81
2022/10/27 06:41:00;;;;;;;26.40;10.60;;;;;;;6.35;92.72;101311.48;51974;1310;1016153;-81
2022/10/27 06:43:31;;;;;;;28.10;12.10;;;;;;;6.40;92.75;101313.77;51812;1294;1016430;-80
2022/10/27 06:46:03;;;;;;;32.40;12.50;;;;;;;6.45;92.95;101313.44;51808;1310;1018870;-82
2022/10/27 06:48:34;;;;;;;33.70;13.60;;;;;;;6.50;93.23;101320.56;52048;1309;1018464;-81
2022/10/27 06:51:06;;;;;;;38.80;15.00;;;;;;;6.57;93.57;101327.48;51956;1310;1015509;-81
2022/10/27 06:53:37;;;;;;;35.30;14.20;;;;;;;6.63;93.65;101331.80;51937;1310;1016769;-81
2022/10/27 06:56:10;;;;;;;39.90;15.80;;;;;;;6.69;93.90;101335.83;51925;1308;1019024;-81
2022/10/27 06:58:43;;;;;;;35.50;14.50;;;;;;;6.75;94.10;101335.39;51913;1310;1016025;-81
2022/10/27 07:01:14;;;;;;;32.10;15.10;;;;;;;6.82;94.27;101338.96;52100;1309;1016102;-81
2022/10/27 07:03:47;;;;;;;34.10;13.80;;;;;;;6.89;94.38;101335.89;51913;1310;1016320;-80
2022/10/27 07:06:18;;;;;;;37.70;15.50;;;;;;;6.96;94.65;101339.33;51904;1305;1016498;-82
2022/10/27 07:08:51;;;;;;;37.40;16.50;;;;;;;7.03;94.87;101340.22;51827;1310;1015783;-80
2022/10/27 07:11:25;;;;;;;35.60;14.50;;;;;;;7.10;95.33;101344.48;51943;1307;1015630;-81
2022/10/27 07:13:56;;;;;;;35.20;16.40;;;;;;;7.18;95.41;101345.34;51745;1310;1016022;-81
2022/10/27 07:16:28;;;;;;;39.30;17.70;;;;;;;7.27;95.69;101350.01;51700;1301;1016012;-81
2022/10/27 07:19:00;;;;;;;37.50;17.10;;;;;;;7.33;95.67;101354.62;51580;1310;1016182;-80
2022/10/27 07:21:32;;;;;;;38.90;18.40;;;;;;;7.41;96.33;101350.73;51634;1309;1015940;-81
2022/10/27 07:24:03;;;;;;;37.70;18.20;;;;;;;7.51;96.79;101347.65;51538;1310;1015959;-80
2022/10/27 07:26:35;;;;;;;38.30;19.00;;;;;;;7.61;97.33;101349.23;51741;1310;1016152;-81
2022/10/27 07:29:07;;;;;;;35.20;16.60;;;;;;;7.71;97.35;101350.50;51635;1309;1015962;-81
2022/10/27 07:31:40;;;;;;;38.80;16.70;;;;;;;7.81;97.94;101352.02;51574;1304;1015910;-79
2022/10/27 07:34:12;;;;;;;37.70;16.10;;;;;;;7.95;98.32;101356.54;51608;1310;1016598;-80
2022/10/27 07:36:45;;;;;;;48.20;22.20;;;;;;;8.04;98.54;101357.09;51590;1310;1016310;-81
2022/10/27 07:39:16;;;;;;;41.90;20.70;;;;;;;8.17;99.23;101362.27;51612;1302;1016370;-81
2022/10/27 07:41:47;;;;;;;50.90;21.30;;;;;;;8.29;99.40;101367.23;51877;1309;1016252;-81
2022/10/27 07:44:20;;;;;;;39.40;19.90;;;;;;;8.39;99.41;101368.08;51693;1287;1016617;-81
2022/10/27 07:46:53;;;;;;;47.80;23.50;;;;;;;8.50;99.60;101369.07;51720;1310;1016147;-81
2022/10/27 07:49:25;;;;;;;46.20;19.80;;;;;;;8.61;99.98;101373.60;51783;1310;1015565;-81
2022/10/27 07:51:56;;;;;;;51.70;27.00;;;;;;;8.75;100.00;101373.31;51681;1309;1018317;-80
2022/10/27 07:54:28;;;;;;;48.70;22.90;;;;;;;8.94;100.00;101379.80;51902;1310;1016004;-80
2022/10/27 07:57:00;;;;;;;46.40;23.20;;;;;;;9.10;100.00;101379.49;51729;1310;1016127;-79
2022/10/27 07:59:32;;;;;;;50.50;23.70;;;;;;;9.28;100.00;101381.92;51854;1310;1016082;-80
2022/10/27 08:02:03;;;;;;;51.00;25.50;;;;;;;9.48;100.00;101383.87;51593;1296;1016414;-80
2022/10/27 08:04:35;;;;;;;57.60;28.70;;;;;;;9.66;100.00;101384.27;51571;1310;1017190;-80
2022/10/27 08:07:07;;;;;;;48.80;23.10;;;;;;;9.84;100.00;101392.15;51551;1304;1015603;-80
2022/10/27 08:09:38;;;;;;;46.20;21.50;;;;;;;10.02;100.00;101400.36;51663;1288;1016279;-80
2022/10/27 08:12:10;;;;;;;38.70;20.50;;;;;;;10.17;100.00;101394.24;51772;1310;1017296;-80
2022/10/27 08:14:42;;;;;;;36.30;20.20;;;;;;;10.35;100.00;101398.65;51562;1302;1016281;-80
2022/10/27 08:17:15;;;;;;;41.40;20.20;;;;;;;10.50;100.00;101398.98;51523;1309;1016153;-80
2022/10/27 08:19:46;;;;;;;40.30;18.90;;;;;;;10.65;100.00;101396.42;51633;1310;1015937;-81
2022/10/27 08:22:18;;;;;;;42.30;17.70;;;;;;;10.81;100.00;101398.40;51639;1310;1021227;-81
2022/10/27 08:24:51;;;;;;;37.80;17.10;;;;;;;10.96;100.00;101396.10;51633;1310;1016467;-80
2022/10/27 08:27:24;;;;;;;33.50;16.70;;;;;;;11.08;100.00;101395.82;51653;1310;1015496;-84
2022/10/27 08:29:55;;;;;;;33.50;16.20;;;;;;;11.24;100.00;101400.50;51893;1310;1016110;-82
2022/10/27 08:32:26;;;;;;;35.90;16.80;;;;;;;11.41;100.00;101405.48;51917;1310;1018980;-81
2022/10/27 08:34:58;;;;;;;30.00;13.40;;;;;;;11.57;100.00;101403.58;51679;1310;1016497;-81
2022/10/27 08:37:30;;;;;;;29.30;13.70;;;;;;;11.73;100.00;101409.38;51674;1310;1016477;-82
2022/10/27 08:40:02;;;;;;;29.40;12.50;;;;;;;11.87;100.00;101403.39;51884;1310;1016262;-79
2022/10/27 08:42:47;;;;;;;28.40;13.40;;;;;;;12.00;100.00;101399.73;51846;1309;1016491;-81
2022/10/27 08:45:24;;;;;;;28.40;11.60;;;;;;;12.17;100.00;101405.21;51707;1304;1016173;-81
2022/10/27 08:47:58;;;;;;;30.70;12.90;;;;;;;12.32;100.00;101410.29;51643;1310;1018233;-80
2022/10/27 08:50:39;;;;;;;24.30;10.90;;;;;;;12.47;100.00;101412.04;51814;1310;1016071;-80
2022/10/27 08:53:16;;;;;;;24.50;11.10;;;;;;;12.61;100.00;101418.92;51628;1310;1016267;-82
2022/10/27 08:55:57;;;;;;;25.30;10.80;;;;;;;12.76;100.00;101417.21;51841;1310;1015956;-82
2022/10/27 08:58:37;;;;;;;25.20;10.90;;;;;;;12.88;100.00;101417.30;51842;1310;1016544;-83
2022/10/27 09:01:17;;;;;;;24.30;8.50;;;;;;;13.02;100.00;101414.80;51689;1307;1016186;-80
2022/10/27 09:04:10;;;;;;;26.90;9.80;;;;;;;13.14;100.00;101415.98;51873;1310;1018852;-82
2022/10/27 09:06:50;;;;;;;23.30;9.40;;;;;;;13.26;100.00;101418.30;51819;1310;1016693;-82
2022/10/27 09:09:30;;;;;;;27.80;9.90;;;;;;;13.34;100.00;101420.64;51966;1310;1016504;-81
2022/10/27 09:12:13;;;;;;;24.60;9.30;;;;;;;13.44;100.00;101420.81;51658;1310;1016302;-78
2022/10/27 09:15:07;;;;;;;27.60;9.50;;;;;;;13.55;100.00;101414.05;51677;1310;1015810;-81
2022/10/27 09:17:43;;;;;;;24.20;7.00;;;;;;;13.68;100.00;101417.48;51861;1312;1016396;-80
2022/10/27 09:20:26;;;;;;;21.50;7.40;;;;;;;13.79;100.00;101414.61;51936;1310;1017010;-80
2022/10/27 09:23:02;;;;;;;14.80;5.80;;;;;;;13.93;100.00;101415.80;51668;1308;1016104;-82
2022/10/27 09:25:36;;;;;;;19.60;6.70;;;;;;;14.07;99.94;101414.96;51765;1310;1015859;-83
2022/10/27 09:28:13;;;;;;;18.80;6.10;;;;;;;14.18;99.71;101411.30;51924;1289;1016519;-80
2022/10/27 09:30:45;;;;;;;18.40;6.20;;;;;;;14.32;99.36;101407.77;51718;1280;1019659;-80
2022/10/27 09:33:22;;;;;;;23.30;7.60;;;;;;;14.40;98.70;101406.67;51871;1309;1016353;-79
2022/10/27 09:35:54;;;;;;;18.60;6.60;;;;;;;14.46;98.47;101407.41;51609;1302;1015990;-79
2022/10/27 09:38:27;;;;;;;21.50;6.80;;;;;;;14.54;98.22;101406.30;51739;1312;1016200;-79
2022/10/27 09:40:59;;;;;;;18.10;6.70;;;;;;;14.60;98.19;101401.98;51766;1309;1015943;-79
2022/10/27 09:43:54;;;;;;;22.50;7.20;;;;;;;14.68;97.63;101406.81;51571;1310;1016098;-78
2022/10/27 09:46:28;;;;;;;20.50;6.20;;;;;;;14.77;97.91;101407.70;51709;1310;1015924;-78
2022/10/27 09:49:04;;;;;;;22.50;6.00;;;;;;;14.87;97.63;101407.57;51480;1309;1016209;-78
2022/10/27 09:51:42;;;;;;;19.10;5.40;;;;;;;15.00;97.40;101405.05;51578;1309;1016468;-78
2022/10/27 09:54:31;;;;;;;21.60;6.40;;;;;;;15.09;97.14;101406.08;51571;1311;1016344;-79
2022/10/27 09:57:09;;;;;;;23.30;7.00;;;;;;;15.14;96.53;101403.54;51666;1309;1017042;-78
2022/10/27 10:03:06;;;;;;;19.20;4.20;;;;;;;15.29;96.14;101404.02;51617;1312;1018418;-79
2022/10/27 10:05:38;;;;;;;16.20;5.00;;;;;;;15.35;95.55;101406.64;51759;1311;1019448;-79
2022/10/27 10:08:25;;;;;;;21.10;5.10;;;;;;;15.38;95.16;101406.98;51666;1312;1016448;-79
2022/10/27 10:10:58;;;;;;;18.40;5.20;;;;;;;15.41;95.08;101409.25;51620;1309;1016170;-79
2022/10/27 10:13:31;;;;;;;16.00;5.00;;;;;;;15.44;94.94;101410.31;51704;1311;1016017;-78
2022/10/27 10:16:13;;;;;;;15.20;4.70;;;;;;;15.48;94.93;101411.18;51613;1312;1016383;-78
2022/10/27 10:18:59;;;;;;;17.20;5.00;;;;;;;15.51;94.61;101410.69;51636;1312;1016621;-77
2022/10/27 10:21:46;;;;;;;17.40;4.40;;;;;;;15.54;94.62;101410.98;51525;1312;1016011;-78
2022/10/27 10:24:23;;;;;;;17.30;5.30;;;;;;;15.58;94.56;101407.79;51585;1306;1016513;-78
2022/10/27 10:26:58;;;;;;;23.50;4.90;;;;;;;15.63;94.41;101407.27;51580;1309;1015820;-79
2022/10/27 10:29:33;;;;;;;17.10;4.50;;;;;;;15.67;94.05;101406.77;51645;1309;1016445;-79
2022/10/27 10:32:15;;;;;;;15.40;5.10;;;;;;;15.72;93.92;101401.37;51671;1312;1016453;-79
2022/10/27 10:34:51;;;;;;;13.60;4.30;;;;;;;15.73;93.30;101402.57;51674;1309;1016533;-79
2022/10/27 10:37:45;;;;;;;16.50;5.30;;;;;;;15.77;93.11;101402.73;51922;1310;1016431;-80
2022/10/27 10:40:30;;;;;;;20.10;4.60;;;;;;;15.82;93.27;101401.93;51916;1287;1016784;-79
2022/10/27 10:43:21;;;;;;;15.70;4.90;;;;;;;15.86;93.01;101406.52;51778;1311;1017504;-80
2022/10/27 10:45:53;;;;;;;20.80;5.20;;;;;;;15.88;92.67;101404.30;51700;1311;1016158;-80
2022/10/27 10:48:34;;;;;;;14.90;4.60;;;;;;;15.95;92.83;101409.47;51917;1309;1016476;-80
2022/10/27 10:51:04;;;;;;;;;;;;;;;16.04;92.64;101408.29;51930;1310;1015861;-80
2022/10/27 10:53:39;;;;;;;16.80;4.70;;;;;;;16.11;92.57;101408.71;51945;1310;1015731;-80
2022/10/27 10:56:24;;;;;;;19.50;5.20;;;;;;;16.17;92.41;101401.46;51741;1315;1015945;-80
2022/10/27 10:59:04;;;;;;;18.80;6.40;;;;;;;16.24;92.02;101404.38;51601;1287;1016127;-80
2022/10/27 11:01:48;;;;;;;16.50;4.80;;;;;;;16.28;91.96;101408.27;51603;1309;1016284;-80
2022/10/27 11:04:24;;;;;;;14.40;4.30;;;;;;;16.32;91.57;101406.05;51634;1312;1015717;-79
2022/10/27 11:07:03;;;;;;;14.70;4.70;;;;;;;16.36;91.36;101408.86;51543;1312;1016175;-79
2022/10/27 11:09:42;;;;;;;19.20;6.00;;;;;;;16.39;91.23;101407.00;51604;1312;1016487;-79
2022/10/27 11:12:25;;;;;;;19.30;4.50;;;;;;;16.39;90.89;101404.34;51727;1304;1016160;-80
2022/10/27 11:15:02;;;;;;;17.80;4.40;;;;;;;16.42;90.95;101402.27;51896;1312;1016323;-80
2022/10/27 11:17:36;;;;;;;16.10;4.70;;;;;;;16.47;90.83;101399.27;51913;1293;1016210;-79
2022/10/27 11:20:18;;;;;;;16.00;6.00;;;;;;;16.53;90.73;101397.38;52137;1294;1016562;-79
2022/10/27 11:22:53;;;;;;;22.50;5.60;;;;;;;16.58;90.59;101401.19;51900;1294;1016246;-78
2022/10/27 11:25:29;;;;;;;21.60;5.50;;;;;;;16.63;90.55;101403.30;51605;1310;1016443;-79
2022/10/27 11:28:14;;;;;;;15.50;5.30;;;;;;;16.70;90.66;101401.80;51745;1294;1016472;-78
2022/10/27 11:30:52;;;;;;;18.60;5.80;;;;;;;16.77;89.96;101404.82;51535;1294;1015851;-79
2022/10/27 11:33:30;;;;;;;18.40;6.10;;;;;;;16.81;89.80;101402.45;51646;1294;1016081;-79
2022/10/27 11:36:12;;;;;;;17.60;5.30;;;;;;;16.86;89.66;101402.67;51613;1294;1016231;-80
2022/10/27 11:38:58;;;;;;;16.30;5.40;;;;;;;16.93;89.11;101404.29;51573;1312;1016416;-79